Aviation Digital Data Service (ADDS)

Output produced by METARs form (1110 UTC 22 November 2017)
found at http://aviationweather.gov/adds/metars/
 
KCAR 220520Z 2206/2306 19005KT P6SM SCT200 
     FM221400 18006KT P6SM VCSH OVC040 
     FM221800 18006KT 3SM -RA BR OVC015 
     FM222200 36008KT 2SM -RASN BR OVC008 
     FM230000 36012KT 1SM -SN BR OVC005